Skip Navigation Links
NOAA logo - Click to go to the NOAA homepage
NOAA's National Weather Service
Alaska Aviation Weather Unit
  NWS logo - Click to go to the NWS homepage
Left Navbar Graphic     23 AKDT = 07 GMT

   
NOAA is celebrating 200 years of science, service, and stewardship. Visit the NOAA 200th celebration Web site to learn more.
USA.gov is the U.S. Government's official Web portal to all Federal, state and local government Web resources and services.
Facebook
NWS on Facebook

Important Change Regarding the AAWU Web Presence

 

Over the last several months, the AAWU has been working to navigate its webpages to a nationally supported server. Security, as well as other needs, have necessitated the change.  In the process, we have made an effort to enhance the functionality of our website, as well as some of our products. As of June 20, 2017, aawu.arh.noaa.gov will be discontinued. The new AAWU web address is weather.gov/aawu. It is now live and will run in-parallel with the old site until it is discontinued. Please send any feedback or questions regarding the new webpages to nws.ar.aawu.webauthors@noaa.gov.  Thank you for your patience during this time of transition.
AAWU Home :: Display TAF Add Bookmark
TAF PAUN 240532Z 2406/2506 36004KT P6SM OVC070
     FM241100 11009KT P6SM -RA SCT025 BKN070
     FM241400 11016KT 1 1/2SM -RA BR OVC015
     FM241700 15017G23KT 1 1/2SM -RA BR OVC015
     FM241900 19017G23KT 1 1/2SM -RA BR OVC007
     FM242100 22015G21KT 4SM -RA OVC015=

METAR PAUN 240156Z AUTO 14012G18KT 10SM SCT042 11/02 A2983 RMK AO2 SLP104 T01060017= SPECI PAUN 240205Z AUTO 16013KT 10SM FEW042 BKN070 10/01 A2982 RMK AO2 WSHFT 0145= SPECI PAUN 240233Z AUTO 16013KT 10SM FEW008 BKN050 BKN065 10/01 A2981 RMK AO2 WSHFT 0145= METAR PAUN 240256Z AUTO 13009KT 10SM SCT050 BKN070 OVC110 11/00 A2981 RMK AO2 WSHFT 0145 SLP098 60002 T01060000 58015= METAR PAUN 240356Z AUTO 27004KT 10SM BKN060 OVC075 06/02 A2980 RMK AO2 SLP095 T00610022= METAR PAUN 240456Z AUTO 36004KT 10SM OVC070 08/02 A2977 RMK AO2 RAB19E39 SLP086 P0000 T00780022= METAR PAUN 240556Z AUTO 35004KT 10SM OVC080 08/03 A2975 RMK AO2 SLP079 60002 T00830033 10111 20061 58019= METAR PAUN 240656Z AUTO 26011KT 10SM BKN055 OVC075 06/02 A2973 RMK AO2 SLP071 T00560022=
 Alaska TAF Map

NOAA's National Weather Service
Alaska Aviation Weather Unit
6930 Sand Lake Road
Anchorage, AK 99502-1845
Disclaimer
Credits
Glossary
Privacy Policy
About Us
Career Opportunities
Contact AAWU Internet Services Site last modified: April, 17th 2012